createdAt,value
2022-10-25T00:01:45.566Z,100892.22
2022-10-25T00:04:12.798Z,100904.25
2022-10-25T00:06:39.357Z,100907.94
2022-10-25T00:09:05.802Z,100917.66
2022-10-25T00:11:33.102Z,100913.72
2022-10-25T00:14:02.477Z,100907.13
2022-10-25T00:16:33.024Z,100914.16
2022-10-25T00:18:59.496Z,100905.69
2022-10-25T00:21:25.955Z,100906.72
2022-10-25T00:23:53.050Z,100913.75
2022-10-25T00:26:20.660Z,100920.53
2022-10-25T00:28:47.997Z,100918.09
2022-10-25T00:31:16.261Z,100913.56
2022-10-25T00:33:44.952Z,100906.53
2022-10-25T00:36:17.150Z,100939.38
2022-10-25T00:38:44.936Z,100942.66
2022-10-25T00:41:13.006Z,100932.38
2022-10-25T00:43:45.658Z,100927.03
2022-10-25T00:46:20.481Z,100932.78
2022-10-25T00:49:03.773Z,100939.41
2022-10-25T00:51:45.923Z,100941.06
2022-10-25T00:54:18.500Z,100943.75
2022-10-25T00:56:48.096Z,100947.06
2022-10-25T00:59:18.904Z,100935.47
2022-10-25T01:01:45.470Z,100943.31
2022-10-25T01:04:15.545Z,100940.19
2022-10-25T01:06:50.130Z,100939.81
2022-10-25T01:09:26.354Z,100942.09
2022-10-25T01:11:52.824Z,100948.91
2022-10-25T01:14:20.038Z,100954.28
2022-10-25T01:17:33.309Z,100953.47
2022-10-25T01:20:00.660Z,100953.25
2022-10-25T01:22:43.345Z,100944.16
2022-10-25T01:25:43.799Z,100943.78
2022-10-25T01:28:25.331Z,100936.56
2022-10-25T01:31:20.562Z,100954.09
2022-10-25T01:34:40.686Z,100954.69
2022-10-25T01:37:25.272Z,100945.22
2022-10-25T01:40:06.714Z,100972.44
2022-10-25T01:42:49.340Z,100975.13
2022-10-25T01:45:32.505Z,100964.03
2022-10-25T01:48:05.287Z,100952.66
2022-10-25T01:50:36.622Z,100962.94
2022-10-25T01:53:03.132Z,100958.63
2022-10-25T01:55:48.778Z,100963.38
2022-10-25T01:58:37.580Z,100948.34
2022-10-25T02:01:31.769Z,100961.28
2022-10-25T02:04:08.521Z,100968.50
2022-10-25T02:07:08.831Z,100964.81
2022-10-25T02:09:56.288Z,100969.34
2022-10-25T02:12:32.998Z,100959.66
2022-10-25T02:15:10.073Z,100983.81
2022-10-25T02:17:46.893Z,100980.28
2022-10-25T02:20:17.800Z,100974.72
2022-10-25T02:22:46.144Z,100979.06
2022-10-25T02:25:13.901Z,100981.53
2022-10-25T02:27:41.376Z,100984.44
2022-10-25T02:30:08.622Z,100980.94
2022-10-25T02:32:35.579Z,100982.59
2022-10-25T02:35:03.344Z,100985.28
2022-10-25T02:37:30.586Z,100990.84
2022-10-25T02:39:57.083Z,100988.59
2022-10-25T02:42:24.512Z,100990.00
2022-10-25T02:44:50.906Z,100993.31
2022-10-25T02:47:17.300Z,101004.47
2022-10-25T02:49:43.758Z,100994.16
2022-10-25T02:52:10.220Z,100996.44
2022-10-25T02:54:36.618Z,100996.44
2022-10-25T02:57:03.077Z,100997.25
2022-10-25T02:59:29.784Z,100988.78
2022-10-25T03:01:56.315Z,100998.50
2022-10-25T03:04:22.922Z,101007.59
2022-10-25T03:06:49.319Z,101002.63
2022-10-25T03:09:15.730Z,101005.31
2022-10-25T03:11:42.237Z,101009.25
2022-10-25T03:14:08.673Z,101013.59
2022-10-25T03:16:35.124Z,101013.38
2022-10-25T03:19:01.542Z,101016.91
2022-10-25T03:21:28.031Z,101030.34
2022-10-25T03:23:54.422Z,101032.19
2022-10-25T03:26:20.763Z,101018.53
2022-10-25T03:28:47.279Z,101020.81
2022-10-25T03:31:16.148Z,101023.09
2022-10-25T03:33:43.275Z,101025.19
2022-10-25T03:36:10.407Z,101031.56
2022-10-25T03:38:36.804Z,101031.16
2022-10-25T03:41:03.632Z,101035.91
2022-10-25T03:43:30.057Z,101040.66
2022-10-25T03:45:56.544Z,101036.72
2022-10-25T03:48:22.955Z,101046.44
2022-10-25T03:50:50.420Z,101041.50
2022-10-25T03:53:17.195Z,101044.38
2022-10-25T03:55:43.668Z,101048.50
2022-10-25T03:58:10.060Z,101048.94
2022-10-25T04:00:36.467Z,101061.09
2022-10-25T04:03:03.568Z,101058.63
2022-10-25T04:05:31.261Z,101063.97
2022-10-25T04:07:58.225Z,101054.28
2022-10-25T04:10:25.377Z,101057.19
2022-10-25T04:12:53.610Z,101050.78
2022-10-25T04:15:22.147Z,101059.88
2022-10-25T04:17:50.305Z,101074.72
2022-10-25T04:20:17.303Z,101072.47
2022-10-25T04:22:43.747Z,101077.41
2022-10-25T04:25:10.155Z,101074.09
2022-10-25T04:27:36.540Z,101075.13
2022-10-25T04:30:03.260Z,101088.56
2022-10-25T04:32:29.732Z,101093.72
2022-10-25T04:34:56.267Z,101095.56
2022-10-25T04:37:22.695Z,101098.25
2022-10-25T04:39:49.089Z,101096.59
2022-10-25T04:42:15.625Z,101098.03
2022-10-25T04:44:41.989Z,101101.56
2022-10-25T04:47:08.349Z,101104.66
2022-10-25T04:49:34.695Z,101100.50
2022-10-25T04:52:01.143Z,101103.41
2022-10-25T04:54:27.567Z,101101.75
2022-10-25T04:56:53.929Z,101115.38
2022-10-25T04:59:20.337Z,101101.13
2022-10-25T05:01:46.802Z,101117.22
2022-10-25T05:04:13.219Z,101105.03
2022-10-25T05:06:39.602Z,101102.56
2022-10-25T05:09:05.971Z,101111.66
2022-10-25T05:11:32.708Z,101123.44
2022-10-25T05:13:59.170Z,101119.50
2022-10-25T05:16:26.376Z,101122.38
2022-10-25T05:18:55.203Z,101119.47
2022-10-25T05:23:57.524Z,101134.16
2022-10-25T05:26:26.230Z,101136.63
2022-10-25T05:28:54.467Z,101121.13
2022-10-25T05:31:26.689Z,101139.69
2022-10-25T05:33:56.102Z,101150.63
2022-10-25T05:36:23.522Z,101153.94
2022-10-25T05:38:50.094Z,101144.63
2022-10-25T05:41:17.890Z,101154.34
2022-10-25T05:43:45.304Z,101149.63
2022-10-25T05:46:14.495Z,101152.91
2022-10-25T05:48:45.764Z,101153.31
2022-10-25T05:51:33.850Z,101149.34
2022-10-25T05:54:04.487Z,101155.78
2022-10-25T05:56:32.532Z,101171.44
2022-10-25T05:59:02.799Z,101171.22
2022-10-25T06:01:29.358Z,101164.22
2022-10-25T06:03:56.154Z,101176.81
2022-10-25T06:06:23.394Z,101172.28
2022-10-25T06:08:50.222Z,101173.13
2022-10-25T06:11:19.303Z,101170.66
2022-10-25T06:13:46.250Z,101181.59
2022-10-25T06:16:18.514Z,101184.06
2022-10-25T06:18:45.655Z,101177.44
2022-10-25T06:21:15.421Z,101165.88
2022-10-25T06:23:42.479Z,101181.59
2022-10-25T06:26:26.108Z,101165.84
2022-10-25T06:28:55.059Z,101168.31
2022-10-25T06:31:21.713Z,101178.47
2022-10-25T06:33:48.214Z,101182.41
2022-10-25T06:36:17.286Z,101195.00
2022-10-25T06:38:45.022Z,101185.06
2022-10-25T06:41:13.758Z,101189.22
2022-10-25T06:43:40.480Z,101202.00
2022-10-25T06:46:08.565Z,101204.50
2022-10-25T06:48:35.613Z,101197.91
2022-10-25T06:51:06.873Z,101214.38
2022-10-25T06:53:33.409Z,101211.31
2022-10-25T06:56:05.532Z,101222.44
2022-10-25T06:58:34.703Z,101218.75
2022-10-25T07:01:06.044Z,101228.22
2022-10-25T07:03:36.150Z,101226.19
2022-10-25T07:06:03.605Z,101234.03
2022-10-25T07:08:30.022Z,101226.19
2022-10-25T07:10:56.895Z,101241.06
2022-10-25T07:13:23.849Z,101240.22
2022-10-25T07:15:50.694Z,101239.59
2022-10-25T07:18:17.630Z,101234.44
2022-10-25T07:20:48.578Z,101245.78
2022-10-25T07:23:16.143Z,101243.88
2022-10-25T07:25:42.877Z,101245.97
2022-10-25T07:28:10.238Z,101247.00
2022-10-25T07:30:36.600Z,101247.63
2022-10-25T07:33:04.122Z,101256.53
2022-10-25T07:35:35.515Z,101251.81
2022-10-25T07:38:08.754Z,101252.81
2022-10-25T07:40:35.138Z,101252.66
2022-10-25T07:43:01.500Z,101259.25
2022-10-25T07:45:30.499Z,101255.34
2022-10-25T07:47:57.833Z,101266.53
2022-10-25T07:50:24.211Z,101269.19
2022-10-25T07:52:50.842Z,101265.28
2022-10-25T07:55:18.335Z,101275.22
2022-10-25T07:57:44.809Z,101272.75
2022-10-25T08:00:11.890Z,101276.88
2022-10-25T08:02:38.281Z,101264.72
2022-10-25T08:05:04.917Z,101269.47
2022-10-25T08:07:31.486Z,101266.97
2022-10-25T08:09:57.873Z,101281.88
2022-10-25T08:12:24.247Z,101279.00
2022-10-25T08:14:50.701Z,101292.22
2022-10-25T08:17:18.008Z,101292.84
2022-10-25T08:19:48.753Z,101293.69
2022-10-25T08:22:17.697Z,101303.59
2022-10-25T08:24:44.151Z,101297.16
2022-10-25T08:27:10.580Z,101303.00
2022-10-25T08:29:36.957Z,101299.88
2022-10-25T08:32:03.602Z,101299.06
2022-10-25T08:34:32.419Z,101299.25
2022-10-25T08:36:59.829Z,101302.59
2022-10-25T08:39:26.248Z,101301.56
2022-10-25T08:41:56.082Z,101308.75
2022-10-25T08:45:05.052Z,101298.59
2022-10-25T08:47:36.182Z,101297.38
2022-10-25T08:50:17.738Z,101302.34
2022-10-25T08:52:46.271Z,101305.06
2022-10-25T08:55:58.841Z,101312.88
2022-10-25T08:58:31.891Z,101318.47
2022-10-25T09:01:02.645Z,101316.00
2022-10-25T09:03:29.100Z,101304.41
2022-10-25T09:05:59.984Z,101319.63
2022-10-25T09:08:38.301Z,101325.31
2022-10-25T09:11:26.179Z,101323.53
2022-10-25T09:14:09.296Z,101312.19
2022-10-25T09:16:50.362Z,101313.44
2022-10-25T09:19:32.299Z,101328.06
2022-10-25T09:22:11.721Z,101327.41
2022-10-25T09:24:50.168Z,101329.66
2022-10-25T09:27:26.058Z,101324.78
2022-10-25T09:30:05.207Z,101317.94
2022-10-25T09:32:36.864Z,101338.53
2022-10-25T09:35:05.256Z,101334.53
2022-10-25T09:38:22.178Z,101335.53
2022-10-25T09:41:00.578Z,101337.06
2022-10-25T09:43:32.612Z,101347.91
2022-10-25T09:46:06.118Z,101343.84
2022-10-25T09:48:42.859Z,101337.47
2022-10-25T09:51:19.048Z,101346.03
2022-10-25T09:53:47.026Z,101348.03
2022-10-25T09:56:13.447Z,101349.81
2022-10-25T09:58:42.689Z,101358.97
2022-10-25T10:01:16.629Z,101362.72
2022-10-25T10:03:45.723Z,101362.38
2022-10-25T10:06:28.670Z,101356.75
2022-10-25T10:09:02.615Z,101356.50
2022-10-25T10:11:29.338Z,101356.59
2022-10-25T10:14:03.034Z,101346.75
2022-10-25T10:16:36.402Z,101372.16
2022-10-25T10:19:23.266Z,101365.22
2022-10-25T10:21:54.018Z,101368.16
2022-10-25T10:24:29.417Z,101369.81
2022-10-25T10:26:59.541Z,101360.66
2022-10-25T10:29:28.994Z,101368.50
2022-10-25T10:32:01.681Z,101354.47
2022-10-25T10:34:40.886Z,101366.56
2022-10-25T10:37:37.915Z,101378.25
2022-10-25T10:40:07.001Z,101375.03
2022-10-25T10:42:36.295Z,101363.06
2022-10-25T10:45:07.812Z,101373.75
2022-10-25T10:47:42.933Z,101368.41
2022-10-25T10:50:32.549Z,101376.66
2022-10-25T10:53:01.782Z,101378.56
2022-10-25T10:55:32.699Z,101384.09
2022-10-25T10:58:18.997Z,101374.41
2022-10-25T11:00:53.989Z,101371.00
2022-10-25T11:03:49.182Z,101380.91
2022-10-25T11:06:34.573Z,101363.25
2022-10-25T11:09:11.684Z,101378.19
2022-10-25T11:11:42.273Z,101381.38
2022-10-25T11:14:12.780Z,101376.28
2022-10-25T11:17:06.780Z,101381.78
2022-10-25T11:19:46.398Z,101382.19
2022-10-25T11:22:32.130Z,101385.38
2022-10-25T11:25:05.359Z,101391.38
2022-10-25T11:27:47.416Z,101395.69
2022-10-25T11:30:19.525Z,101385.06
2022-10-25T11:33:06.994Z,101382.09
2022-10-25T11:35:39.634Z,101383.00
2022-10-25T11:38:24.162Z,101386.75
2022-10-25T11:41:04.383Z,101370.03
2022-10-25T11:44:08.040Z,101386.59
2022-10-25T11:47:28.672Z,101394.31
2022-10-25T11:50:03.518Z,101373.16
2022-10-25T11:52:56.846Z,101381.47
2022-10-25T11:55:43.749Z,101382.66
2022-10-25T11:58:39.785Z,101388.78
2022-10-25T12:01:13.967Z,101385.97
2022-10-25T12:03:59.018Z,101383.56
2022-10-25T12:06:41.353Z,101389.59
2022-10-25T12:09:35.462Z,101388.41
2022-10-25T12:12:07.136Z,101402.66
2022-10-25T12:14:41.242Z,101393.88
2022-10-25T12:17:21.022Z,101385.84
2022-10-25T12:19:50.078Z,101380.50
2022-10-25T12:22:21.850Z,101398.91
2022-10-25T12:24:54.250Z,101380.66
2022-10-25T12:27:22.514Z,101394.53
2022-10-25T12:29:55.470Z,101392.22
2022-10-25T12:32:28.940Z,101375.25
2022-10-25T12:34:59.725Z,101394.09
2022-10-25T12:37:44.069Z,101391.59
2022-10-25T12:40:18.560Z,101386.81
2022-10-25T12:42:55.799Z,101396.50
2022-10-25T12:45:44.730Z,101395.53
2022-10-25T12:48:29.713Z,101392.44
2022-10-25T12:51:24.714Z,101387.88
2022-10-25T12:54:09.300Z,101396.81
2022-10-25T12:57:32.960Z,101394.25
2022-10-25T13:00:15.158Z,101374.22
2022-10-25T13:02:59.358Z,101393.06
2022-10-25T13:05:44.426Z,101398.00
2022-10-25T13:08:12.946Z,101402.94
2022-10-25T13:10:46.184Z,101393.81
2022-10-25T13:13:40.064Z,101388.63
2022-10-25T13:16:09.861Z,101396.28
2022-10-25T13:18:42.190Z,101400.47
2022-10-25T13:21:12.336Z,101393.28
2022-10-25T13:23:51.500Z,101399.50
2022-10-25T13:26:20.621Z,101395.22
2022-10-25T13:28:53.028Z,101385.81
2022-10-25T13:31:35.754Z,101395.28
2022-10-25T13:34:22.607Z,101392.59
2022-10-25T13:36:53.622Z,101402.53
2022-10-25T13:39:32.277Z,101405.91
2022-10-25T13:42:32.975Z,101393.47
2022-10-25T13:45:02.197Z,101398.66
2022-10-25T13:47:39.515Z,101394.09
2022-10-25T13:50:26.903Z,101394.50
2022-10-25T13:52:58.910Z,101397.44
2022-10-25T13:55:34.172Z,101398.28
2022-10-25T13:58:01.459Z,101404.50
2022-10-25T14:00:40.752Z,101406.16
2022-10-25T14:03:10.190Z,101406.41
2022-10-25T14:05:55.117Z,101396.03
2022-10-25T14:08:24.127Z,101394.38
2022-10-25T14:10:51.978Z,101388.38
2022-10-25T14:13:28.210Z,101394.16
2022-10-25T14:16:03.110Z,101390.03
2022-10-25T14:18:33.491Z,101393.09
2022-10-25T14:21:05.376Z,101386.00
2022-10-25T14:23:34.584Z,101383.31
2022-10-25T14:26:02.870Z,101376.91
2022-10-25T14:28:32.130Z,101390.78
2022-10-25T14:31:01.408Z,101387.88
2022-10-25T14:33:35.449Z,101362.91
2022-10-25T14:36:27.287Z,101364.16
2022-10-25T14:38:59.858Z,101382.16
2022-10-25T14:41:28.842Z,101371.00
2022-10-25T14:43:56.882Z,101390.84
2022-10-25T14:46:25.207Z,101376.56
2022-10-25T14:48:57.463Z,101372.56
2022-10-25T14:51:28.443Z,101377.97
2022-10-25T14:54:03.534Z,101374.81
2022-10-25T14:56:37.431Z,101360.38
2022-10-25T14:59:06.584Z,101359.00
2022-10-25T15:01:34.026Z,101366.88
2022-10-25T15:04:01.206Z,101378.25
2022-10-25T15:06:31.481Z,101377.66
2022-10-25T15:09:37.112Z,101372.69
2022-10-25T15:12:04.588Z,101369.63
2022-10-25T15:14:31.161Z,101374.41
2022-10-25T15:17:14.784Z,101370.28
2022-10-25T15:20:01.834Z,101346.38
2022-10-25T15:22:43.517Z,101351.09
2022-10-25T15:25:22.133Z,101367.44
2022-10-25T15:27:54.709Z,101364.59
2022-10-25T15:31:02.432Z,101367.91
2022-10-25T15:33:31.429Z,101349.47
2022-10-25T15:36:02.526Z,101357.34
2022-10-25T15:38:47.728Z,101358.78
2022-10-25T15:41:17.964Z,101359.41
2022-10-25T15:43:44.360Z,101341.44
2022-10-25T15:46:30.914Z,101339.19
2022-10-25T15:49:00.423Z,101337.75
2022-10-25T15:51:30.191Z,101333.66
2022-10-25T15:53:57.646Z,101341.09
2022-10-25T15:56:24.169Z,101342.75
2022-10-25T15:58:51.305Z,101346.66
2022-10-25T16:01:18.554Z,101348.56
2022-10-25T16:03:45.231Z,101349.63
2022-10-25T16:06:13.821Z,101356.94
2022-10-25T16:08:41.608Z,101352.16
2022-10-25T16:11:17.551Z,101345.22
2022-10-25T16:13:46.588Z,101348.16
2022-10-25T16:16:39.364Z,101350.84
2022-10-25T16:19:13.736Z,101342.59
2022-10-25T16:21:40.162Z,101334.53
2022-10-25T16:24:06.653Z,101352.75
2022-10-25T16:26:36.686Z,101336.22
2022-10-25T16:29:03.784Z,101366.47
2022-10-25T16:31:30.162Z,101367.09
2022-10-25T16:33:56.542Z,101361.47
2022-10-25T16:36:23.017Z,101367.31
2022-10-25T16:38:49.838Z,101357.00
2022-10-25T16:41:25.479Z,101339.03
2022-10-25T16:43:52.197Z,101348.56
2022-10-25T16:46:18.730Z,101360.13
2022-10-25T16:48:45.209Z,101361.38
2022-10-25T16:51:16.564Z,101366.59
2022-10-25T16:53:43.870Z,101352.31
2022-10-25T16:56:11.456Z,101364.91
2022-10-25T16:58:41.560Z,101349.41
2022-10-25T17:01:20.168Z,101334.16
2022-10-25T17:03:51.070Z,101350.47
2022-10-25T17:09:05.348Z,101339.94
2022-10-25T17:11:31.824Z,101342.66
2022-10-25T17:13:58.200Z,101349.09
2022-10-25T17:16:24.630Z,101350.75
2022-10-25T17:18:50.960Z,101359.66
2022-10-25T17:21:17.572Z,101358.00
2022-10-25T17:23:44.014Z,101355.31
2022-10-25T17:26:11.646Z,101357.16
2022-10-25T17:28:43.035Z,101348.69
2022-10-25T17:31:12.433Z,101353.44
2022-10-25T17:33:39.174Z,101359.25
2022-10-25T17:36:14.262Z,101346.44
2022-10-25T17:38:41.359Z,101345.81
2022-10-25T17:41:08.383Z,101346.44
2022-10-25T17:43:35.935Z,101343.75
2022-10-25T17:46:05.014Z,101346.19
2022-10-25T17:48:32.103Z,101355.47
2022-10-25T17:51:09.815Z,101336.66
2022-10-25T17:53:36.432Z,101354.63
2022-10-25T17:56:14.717Z,101358.16
2022-10-25T17:58:42.102Z,101363.94
2022-10-25T18:01:09.552Z,101358.31
2022-10-25T18:03:36.274Z,101353.16
2022-10-25T18:06:10.385Z,101366.75
2022-10-25T18:08:37.081Z,101362.59
2022-10-25T18:11:22.768Z,101357.63
2022-10-25T18:13:52.138Z,101358.44
2022-10-25T18:16:18.783Z,101347.25
2022-10-25T18:18:45.311Z,101358.78
2022-10-25T18:21:14.031Z,101364.56
2022-10-25T18:23:41.519Z,101367.66
2022-10-25T18:26:10.887Z,101360.34
2022-10-25T18:28:38.037Z,101363.44
2022-10-25T18:31:10.387Z,101363.44
2022-10-25T18:33:39.483Z,101362.41
2022-10-25T18:36:09.731Z,101360.72
2022-10-25T18:38:36.529Z,101366.03
2022-10-25T18:41:07.914Z,101363.09
2022-10-25T18:43:35.145Z,101370.91
2022-10-25T18:46:02.237Z,101366.75
2022-10-25T18:48:28.885Z,101363.59
2022-10-25T18:50:55.596Z,101366.22
2022-10-25T18:53:22.566Z,101363.78
2022-10-25T18:55:53.067Z,101352.84
2022-10-25T18:58:19.596Z,101350.44
2022-10-25T19:00:46.932Z,101354.59
2022-10-25T19:03:14.990Z,101345.72
2022-10-25T19:05:42.362Z,101346.31
2022-10-25T19:08:12.385Z,101345.22
2022-10-25T19:10:40.076Z,101347.66
2022-10-25T19:13:07.946Z,101345.78
2022-10-25T19:15:34.511Z,101348.38
2022-10-25T19:18:01.115Z,101345.09
2022-10-25T19:20:27.531Z,101333.44
2022-10-25T19:22:58.476Z,101340.03
2022-10-25T19:25:28.680Z,101335.88
2022-10-25T19:27:56.341Z,101346.94
2022-10-25T19:30:22.996Z,101349.22
2022-10-25T19:32:49.669Z,101335.63
2022-10-25T19:35:16.558Z,101330.25
2022-10-25T19:37:43.112Z,101336.44
2022-10-25T19:40:10.769Z,101333.50
2022-10-25T19:42:37.826Z,101333.06
2022-10-25T19:45:05.390Z,101328.47
2022-10-25T19:47:34.305Z,101306.50
2022-10-25T19:50:01.404Z,101317.66
2022-10-25T19:52:27.855Z,101323.75
2022-10-25T19:54:54.337Z,101324.78
2022-10-25T19:57:20.841Z,101332.50
2022-10-25T19:59:47.216Z,101341.53
2022-10-25T20:02:13.688Z,101336.38
2022-10-25T20:04:40.147Z,101338.03
2022-10-25T20:07:06.525Z,101326.56
2022-10-25T20:09:32.885Z,101323.31
2022-10-25T20:11:59.339Z,101319.44
2022-10-25T20:14:25.786Z,101325.03
2022-10-25T20:16:52.148Z,101321.72
2022-10-25T20:19:18.624Z,101324.59
2022-10-25T20:21:44.988Z,101322.09
2022-10-25T20:24:12.470Z,101315.72
2022-10-25T20:26:41.210Z,101304.31
2022-10-25T20:29:17.114Z,101318.59
2022-10-25T20:31:47.091Z,101314.47
2022-10-25T20:34:13.518Z,101325.72
2022-10-25T20:36:39.925Z,101315.34
2022-10-25T20:39:06.680Z,101321.47
2022-10-25T20:41:35.290Z,101303.59
2022-10-25T20:44:03.768Z,101316.97
2022-10-25T20:46:31.058Z,101316.06
2022-10-25T20:48:58.756Z,101319.78
2022-10-25T20:51:25.311Z,101318.28
2022-10-25T20:53:51.919Z,101323.25
2022-10-25T20:56:20.975Z,101320.97
2022-10-25T20:58:47.614Z,101320.50
2022-10-25T21:01:14.494Z,101304.19
2022-10-25T21:03:41.214Z,101306.06
2022-10-25T21:06:10.543Z,101303.53
2022-10-25T21:08:37.746Z,101305.41
2022-10-25T21:11:06.171Z,101303.91
2022-10-25T21:13:34.944Z,101315.25
2022-10-25T21:16:06.080Z,101303.91
2022-10-25T21:18:32.596Z,101303.91
2022-10-25T21:21:08.031Z,101305.94
2022-10-25T21:23:34.929Z,101309.28
2022-10-25T21:26:03.683Z,101304.38
2022-10-25T21:28:38.544Z,101297.91
2022-10-25T21:31:08.228Z,101299.53
2022-10-25T21:33:34.764Z,101301.75
2022-10-25T21:36:09.896Z,101304.22
2022-10-25T21:38:36.485Z,101300.22
2022-10-25T21:41:13.091Z,101288.06
2022-10-25T21:43:45.387Z,101296.72
2022-10-25T21:46:13.155Z,101295.06
2022-10-25T21:48:39.686Z,101287.22
2022-10-25T21:51:06.844Z,101293.78
2022-10-25T21:53:34.307Z,101288.78
2022-10-25T21:56:31.203Z,101288.97
2022-10-25T21:58:59.375Z,101290.38
2022-10-25T22:01:28.736Z,101293.25
2022-10-25T22:03:55.533Z,101289.53
2022-10-25T22:06:24.315Z,101295.09
2022-10-25T22:08:52.693Z,101295.66
2022-10-25T22:11:25.270Z,101282.16
2022-10-25T22:13:57.403Z,101290.13
2022-10-25T22:16:25.234Z,101286.03
2022-10-25T22:18:54.770Z,101284.38
2022-10-25T22:21:21.280Z,101260.97
2022-10-25T22:23:48.107Z,101283.94
2022-10-25T22:26:17.477Z,101277.56
2022-10-25T22:28:46.317Z,101282.09
2022-10-25T22:31:15.795Z,101278.97
2022-10-25T22:33:43.757Z,101273.06
2022-10-25T22:36:13.332Z,101278.75
2022-10-25T22:38:39.898Z,101276.47
2022-10-25T22:41:10.080Z,101256.53
2022-10-25T22:43:37.702Z,101272.84
2022-10-25T22:46:07.644Z,101272.06
2022-10-25T22:48:36.805Z,101229.38
2022-10-25T22:51:04.062Z,101269.56
2022-10-25T22:53:30.870Z,101265.41
2022-10-25T22:56:03.532Z,101263.09
2022-10-25T22:58:34.584Z,101257.47
2022-10-25T23:01:06.694Z,101258.47
2022-10-25T23:03:34.673Z,101260.34
2022-10-25T23:06:02.579Z,101266.06
2022-10-25T23:08:29.758Z,101259.41
2022-10-25T23:11:13.067Z,101256.75
2022-10-25T23:13:39.621Z,101262.06
2022-10-25T23:16:06.456Z,101255.63
2022-10-25T23:18:33.645Z,101260.78
2022-10-25T23:21:01.858Z,101256.28
2022-10-25T23:23:32.689Z,101267.41
2022-10-25T23:26:00.080Z,101268.25
2022-10-25T23:28:28.009Z,101274.50
2022-10-25T23:30:54.397Z,101263.28
2022-10-25T23:33:20.733Z,101264.94
2022-10-25T23:35:47.162Z,101261.28
2022-10-25T23:38:14.227Z,101258.75
2022-10-25T23:40:46.522Z,101247.44
2022-10-25T23:43:12.903Z,101238.69
2022-10-25T23:45:41.777Z,101247.63
2022-10-25T23:48:08.114Z,101251.28
2022-10-25T23:50:34.608Z,101248.25
2022-10-25T23:53:00.951Z,101244.03
2022-10-25T23:55:27.382Z,101240.16
2022-10-25T23:57:59.170Z,101232.78
